Browning, Kentucky
Current Conditions -  °F | °C
As of 4:53 PM on Tuesday 27 Jan 2015 (Local Time) from KBWG Reporting Station
Overcast Overcast  
Wind Chill: 30°   Ceiling: 2300
Heat Index: 35°   Visibility: 7mi
Dew Point: 29°   Wind: 6mph
Humidity: 78%   Direction: 320°NW
Pressure: 30.17"   Gusts: NA
Location:  36.9519°N, 86.6076°W
Report Text: KBWG 272253Z AUTO 32005KT 7SM SCT014 OVC023 02/M02 A3017 RMK AO2 SLP218 T00171017
Loading
Personal Weather Stations






























Interactive Weather Map New forecast layout! Learn more

10-Day Weather Forecast

Advertisements
Track Severe Weather on mobile